sensor_id;sensor_type;location;lat;lon;timestamp;pressure;altitude;pressure_sealevel;temperature;humidity
31183;BME280;17813;0.000;0.000;2024-02-16T00:01:05;99366.22;;;7.61;94.76
31183;BME280;17813;0.000;0.000;2024-02-16T00:03:32;99364.59;;;7.58;94.59
31183;BME280;17813;0.000;0.000;2024-02-16T00:06:00;99359.00;;;7.64;94.44
31183;BME280;17813;0.000;0.000;2024-02-16T00:08:27;99344.78;;;7.67;94.18
31183;BME280;17813;0.000;0.000;2024-02-16T00:10:55;99350.69;;;7.72;94.63
31183;BME280;17813;0.000;0.000;2024-02-16T00:13:24;99340.66;;;7.79;95.77
31183;BME280;17813;0.000;0.000;2024-02-16T00:15:51;99338.81;;;7.81;95.89
31183;BME280;17813;0.000;0.000;2024-02-16T00:18:18;99341.91;;;7.89;95.33
31183;BME280;17813;0.000;0.000;2024-02-16T00:20:45;99335.63;;;7.91;95.10
31183;BME280;17813;0.000;0.000;2024-02-16T00:23:13;99343.53;;;7.91;94.27
31183;BME280;17813;0.000;0.000;2024-02-16T00:25:40;99333.13;;;7.88;93.98
31183;BME280;17813;0.000;0.000;2024-02-16T00:28:08;99337.66;;;7.86;93.63
31183;BME280;17813;0.000;0.000;2024-02-16T00:30:35;99340.19;;;7.88;93.92
31183;BME280;17813;0.000;0.000;2024-02-16T00:33:04;99338.94;;;7.95;94.21
31183;BME280;17813;0.000;0.000;2024-02-16T00:35:31;99335.81;;;8.04;94.37
31183;BME280;17813;0.000;0.000;2024-02-16T00:38:00;99333.63;;;8.12;94.07
31183;BME280;17813;0.000;0.000;2024-02-16T00:40:28;99335.00;;;8.19;93.91
31183;BME280;17813;0.000;0.000;2024-02-16T00:42:57;99327.50;;;8.27;93.68
31183;BME280;17813;0.000;0.000;2024-02-16T00:45:24;99326.19;;;8.36;93.56
31183;BME280;17813;0.000;0.000;2024-02-16T00:47:51;99327.63;;;8.42;93.13
31183;BME280;17813;0.000;0.000;2024-02-16T00:50:20;99329.06;;;8.47;93.21
31183;BME280;17813;0.000;0.000;2024-02-16T00:52:47;99328.66;;;8.55;92.96
31183;BME280;17813;0.000;0.000;2024-02-16T00:55:15;99330.09;;;8.60;93.14
31183;BME280;17813;0.000;0.000;2024-02-16T00:57:41;99333.50;;;8.62;92.64
31183;BME280;17813;0.000;0.000;2024-02-16T01:00:09;99334.28;;;8.64;92.86
31183;BME280;17813;0.000;0.000;2024-02-16T01:02:36;99333.34;;;8.65;92.45
31183;BME280;17813;0.000;0.000;2024-02-16T01:05:03;99328.91;;;8.66;92.79
31183;BME280;17813;0.000;0.000;2024-02-16T01:07:30;99330.44;;;8.70;92.99
31183;BME280;17813;0.000;0.000;2024-02-16T01:09:58;99332.72;;;8.76;92.95
31183;BME280;17813;0.000;0.000;2024-02-16T01:12:27;99343.03;;;8.81;92.43
31183;BME280;17813;0.000;0.000;2024-02-16T01:14:55;99342.97;;;8.82;92.08
31183;BME280;17813;0.000;0.000;2024-02-16T01:17:25;99343.03;;;8.81;92.30
31183;BME280;17813;0.000;0.000;2024-02-16T01:19:52;99340.41;;;8.81;92.57
31183;BME280;17813;0.000;0.000;2024-02-16T01:22:19;99336.13;;;8.94;93.09
31183;BME280;17813;0.000;0.000;2024-02-16T01:24:47;99342.31;;;9.09;92.39
31183;BME280;17813;0.000;0.000;2024-02-16T01:27:15;99336.31;;;9.21;91.86
31183;BME280;17813;0.000;0.000;2024-02-16T01:29:45;99333.31;;;9.27;91.31
31183;BME280;17813;0.000;0.000;2024-02-16T01:32:11;99328.78;;;9.29;91.39
31183;BME280;17813;0.000;0.000;2024-02-16T01:34:40;99334.56;;;9.35;91.42
31183;BME280;17813;0.000;0.000;2024-02-16T01:37:07;99334.13;;;9.43;91.08
31183;BME280;17813;0.000;0.000;2024-02-16T01:39:35;99327.22;;;9.41;90.81
31183;BME280;17813;0.000;0.000;2024-02-16T01:42:04;99327.88;;;9.44;91.00
31183;BME280;17813;0.000;0.000;2024-02-16T01:44:32;99327.78;;;9.46;90.84
31183;BME280;17813;0.000;0.000;2024-02-16T01:47:00;99326.94;;;9.45;90.57
31183;BME280;17813;0.000;0.000;2024-02-16T01:49:28;99328.63;;;9.46;91.05
31183;BME280;17813;0.000;0.000;2024-02-16T01:51:56;99325.06;;;9.47;90.42
31183;BME280;17813;0.000;0.000;2024-02-16T01:54:24;99322.31;;;9.49;90.05
31183;BME280;17813;0.000;0.000;2024-02-16T01:56:52;99324.41;;;9.58;89.86
31183;BME280;17813;0.000;0.000;2024-02-16T01:59:21;99320.25;;;9.68;89.61
31183;BME280;17813;0.000;0.000;2024-02-16T02:01:48;99312.69;;;9.76;89.26
31183;BME280;17813;0.000;0.000;2024-02-16T02:04:15;99311.75;;;9.77;89.17
31183;BME280;17813;0.000;0.000;2024-02-16T02:06:42;99319.69;;;9.77;89.41
31183;BME280;17813;0.000;0.000;2024-02-16T02:09:08;99313.56;;;9.77;89.45
31183;BME280;17813;0.000;0.000;2024-02-16T02:11:38;99309.19;;;9.76;89.37
31183;BME280;17813;0.000;0.000;2024-02-16T02:14:07;99304.09;;;9.73;89.12
31183;BME280;17813;0.000;0.000;2024-02-16T02:16:34;99304.19;;;9.71;89.01
31183;BME280;17813;0.000;0.000;2024-02-16T02:19:03;99292.84;;;9.69;89.48
31183;BME280;17813;0.000;0.000;2024-02-16T02:21:31;99299.84;;;9.70;89.64
31183;BME280;17813;0.000;0.000;2024-02-16T02:23:58;99300.03;;;9.67;88.99
31183;BME280;17813;0.000;0.000;2024-02-16T02:26:25;99302.56;;;9.68;89.31
31183;BME280;17813;0.000;0.000;2024-02-16T02:28:52;99303.34;;;9.71;89.42
31183;BME280;17813;0.000;0.000;2024-02-16T02:31:19;99300.69;;;9.71;88.79
31183;BME280;17813;0.000;0.000;2024-02-16T02:33:47;99295.38;;;9.71;89.22
31183;BME280;17813;0.000;0.000;2024-02-16T02:36:14;99297.19;;;9.70;89.22
31183;BME280;17813;0.000;0.000;2024-02-16T02:38:41;99293.50;;;9.73;89.20
31183;BME280;17813;0.000;0.000;2024-02-16T02:41:07;99301.25;;;9.76;88.51
31183;BME280;17813;0.000;0.000;2024-02-16T02:43:34;99294.34;;;9.73;88.78
31183;BME280;17813;0.000;0.000;2024-02-16T02:46:01;99304.66;;;9.78;88.35
31183;BME280;17813;0.000;0.000;2024-02-16T02:48:28;99293.22;;;9.77;88.02
31183;BME280;17813;0.000;0.000;2024-02-16T02:50:55;99297.19;;;9.70;87.60
31183;BME280;17813;0.000;0.000;2024-02-16T02:53:21;99282.91;;;9.73;86.83
31183;BME280;17813;0.000;0.000;2024-02-16T02:55:48;99284.03;;;9.68;87.36
31183;BME280;17813;0.000;0.000;2024-02-16T02:58:15;99290.38;;;9.66;87.00
31183;BME280;17813;0.000;0.000;2024-02-16T03:00:41;99285.53;;;9.58;86.98
31183;BME280;17813;0.000;0.000;2024-02-16T03:03:09;99271.84;;;9.52;87.02
31183;BME280;17813;0.000;0.000;2024-02-16T03:05:36;99258.00;;;9.32;86.99
31183;BME280;17813;0.000;0.000;2024-02-16T03:08:06;99261.16;;;9.09;87.67
31183;BME280;17813;0.000;0.000;2024-02-16T03:10:33;99261.03;;;8.96;87.35
31183;BME280;17813;0.000;0.000;2024-02-16T03:13:02;99259.03;;;8.86;88.07
31183;BME280;17813;0.000;0.000;2024-02-16T03:15:29;99262.19;;;8.77;88.35
31183;BME280;17813;0.000;0.000;2024-02-16T03:17:58;99262.63;;;8.69;89.01
31183;BME280;17813;0.000;0.000;2024-02-16T03:20:25;99252.06;;;8.69;89.08
31183;BME280;17813;0.000;0.000;2024-02-16T03:22:52;99251.28;;;8.67;89.39
31183;BME280;17813;0.000;0.000;2024-02-16T03:25:20;99243.47;;;8.65;89.57
31183;BME280;17813;0.000;0.000;2024-02-16T03:27:48;99239.78;;;8.68;89.85
31183;BME280;17813;0.000;0.000;2024-02-16T03:30:15;99246.59;;;8.72;90.42
31183;BME280;17813;0.000;0.000;2024-02-16T03:32:42;99240.88;;;8.80;90.09
31183;BME280;17813;0.000;0.000;2024-02-16T03:35:09;99249.19;;;8.88;90.21
31183;BME280;17813;0.000;0.000;2024-02-16T03:37:37;99258.47;;;8.95;90.19
31183;BME280;17813;0.000;0.000;2024-02-16T03:40:06;99261.63;;;9.01;90.09
31183;BME280;17813;0.000;0.000;2024-02-16T03:42:34;99265.50;;;9.10;89.84
31183;BME280;17813;0.000;0.000;2024-02-16T03:45:03;99271.13;;;9.20;90.35
31183;BME280;17813;0.000;0.000;2024-02-16T03:47:30;99265.38;;;9.27;89.92
31183;BME280;17813;0.000;0.000;2024-02-16T03:49:57;99264.16;;;9.33;89.59
31183;BME280;17813;0.000;0.000;2024-02-16T03:52:24;99260.38;;;9.37;89.36
31183;BME280;17813;0.000;0.000;2024-02-16T03:54:52;99261.81;;;9.43;89.47
31183;BME280;17813;0.000;0.000;2024-02-16T03:57:21;99265.69;;;9.51;89.45
31183;BME280;17813;0.000;0.000;2024-02-16T03:59:48;99270.59;;;9.57;88.80
31183;BME280;17813;0.000;0.000;2024-02-16T04:02:16;99257.94;;;9.62;88.59
31183;BME280;17813;0.000;0.000;2024-02-16T04:04:44;99262.94;;;9.67;88.60
31183;BME280;17813;0.000;0.000;2024-02-16T04:07:11;99282.91;;;9.73;88.29
31183;BME280;17813;0.000;0.000;2024-02-16T04:09:40;99279.22;;;9.75;88.66
31183;BME280;17813;0.000;0.000;2024-02-16T04:12:07;99281.69;;;9.78;88.36
31183;BME280;17813;0.000;0.000;2024-02-16T04:14:35;99278.19;;;9.78;88.33
31183;BME280;17813;0.000;0.000;2024-02-16T04:17:03;99282.72;;;9.76;88.34
31183;BME280;17813;0.000;0.000;2024-02-16T04:19:31;99287.25;;;9.74;88.45
31183;BME280;17813;0.000;0.000;2024-02-16T04:22:00;99284.88;;;9.69;88.42
31183;BME280;17813;0.000;0.000;2024-02-16T04:24:31;99285.19;;;9.64;88.19
31183;BME280;17813;0.000;0.000;2024-02-16T04:26:59;99284.50;;;9.61;88.75
31183;BME280;17813;0.000;0.000;2024-02-16T04:29:26;99290.34;;;9.52;88.86
31183;BME280;17813;0.000;0.000;2024-02-16T04:31:54;99284.94;;;9.39;88.82
31183;BME280;17813;0.000;0.000;2024-02-16T04:34:21;99306.94;;;9.25;89.72
31183;BME280;17813;0.000;0.000;2024-02-16T04:36:50;99292.50;;;9.31;89.04
31183;BME280;17813;0.000;0.000;2024-02-16T04:39:18;99288.06;;;9.31;88.81
31183;BME280;17813;0.000;0.000;2024-02-16T04:41:46;99288.91;;;9.32;88.71
31183;BME280;17813;0.000;0.000;2024-02-16T04:44:12;99295.53;;;9.39;88.90
31183;BME280;17813;0.000;0.000;2024-02-16T04:46:39;99272.19;;;9.46;89.10
31183;BME280;17813;0.000;0.000;2024-02-16T04:49:06;99278.91;;;9.51;88.20
31183;BME280;17813;0.000;0.000;2024-02-16T04:51:33;99278.72;;;9.54;88.25
31183;BME280;17813;0.000;0.000;2024-02-16T04:54:00;99279.78;;;9.52;88.00
31183;BME280;17813;0.000;0.000;2024-02-16T04:56:28;99288.09;;;9.46;88.33
31183;BME280;17813;0.000;0.000;2024-02-16T04:58:56;99293.06;;;9.36;88.21
31183;BME280;17813;0.000;0.000;2024-02-16T05:01:23;99295.22;;;9.29;88.03
31183;BME280;17813;0.000;0.000;2024-02-16T05:03:51;99297.31;;;9.24;88.26
31183;BME280;17813;0.000;0.000;2024-02-16T05:06:19;99293.91;;;9.22;88.79
31183;BME280;17813;0.000;0.000;2024-02-16T05:08:45;99286.72;;;9.24;89.22
31183;BME280;17813;0.000;0.000;2024-02-16T05:11:14;99284.56;;;9.31;88.49
31183;BME280;17813;0.000;0.000;2024-02-16T05:13:41;99290.78;;;9.30;88.34
31183;BME280;17813;0.000;0.000;2024-02-16T05:16:10;99277.75;;;9.27;88.22
31183;BME280;17813;0.000;0.000;2024-02-16T05:18:38;99280.56;;;9.24;88.46
31183;BME280;17813;0.000;0.000;2024-02-16T05:21:05;99276.41;;;9.20;88.21
31183;BME280;17813;0.000;0.000;2024-02-16T05:23:33;99259.56;;;9.07;88.54
31183;BME280;17813;0.000;0.000;2024-02-16T05:26:00;99265.97;;;9.02;89.06
31183;BME280;17813;0.000;0.000;2024-02-16T05:28:29;99275.78;;;9.00;88.79
31183;BME280;17813;0.000;0.000;2024-02-16T05:31:14;99265.38;;;8.97;88.61
31183;BME280;17813;0.000;0.000;2024-02-16T05:33:43;99257.81;;;8.91;88.66
31183;BME280;17813;0.000;0.000;2024-02-16T05:36:12;99265.16;;;8.86;89.37
31183;BME280;17813;0.000;0.000;2024-02-16T05:38:40;99261.94;;;8.81;89.57
31183;BME280;17813;0.000;0.000;2024-02-16T05:41:10;99262.78;;;8.82;89.34
31183;BME280;17813;0.000;0.000;2024-02-16T05:43:39;99258.44;;;8.81;89.27
31183;BME280;17813;0.000;0.000;2024-02-16T05:46:07;99254.94;;;8.80;89.49
31183;BME280;17813;0.000;0.000;2024-02-16T05:48:38;99267.31;;;8.80;89.18
31183;BME280;17813;0.000;0.000;2024-02-16T05:51:07;99266.38;;;8.81;89.42
31183;BME280;17813;0.000;0.000;2024-02-16T05:53:35;99264.41;;;8.84;89.03
31183;BME280;17813;0.000;0.000;2024-02-16T05:56:02;99252.88;;;8.85;89.21
31183;BME280;17813;0.000;0.000;2024-02-16T05:58:29;99247.59;;;8.85;89.83
31183;BME280;17813;0.000;0.000;2024-02-16T06:00:57;99246.56;;;8.88;90.31
31183;BME280;17813;0.000;0.000;2024-02-16T06:03:25;99244.31;;;8.96;90.30
31183;BME280;17813;0.000;0.000;2024-02-16T06:05:53;99256.91;;;9.07;89.62
31183;BME280;17813;0.000;0.000;2024-02-16T06:08:20;99265.25;;;9.15;89.67
31183;BME280;17813;0.000;0.000;2024-02-16T06:10:48;99266.59;;;9.22;89.33
31183;BME280;17813;0.000;0.000;2024-02-16T06:13:21;99272.53;;;9.25;88.81
31183;BME280;17813;0.000;0.000;2024-02-16T06:15:49;99260.75;;;9.31;88.70
31183;BME280;17813;0.000;0.000;2024-02-16T06:18:17;99269.03;;;9.25;88.93
31183;BME280;17813;0.000;0.000;2024-02-16T06:20:45;99257.44;;;9.27;88.09
31183;BME280;17813;0.000;0.000;2024-02-16T06:23:12;99260.84;;;9.29;88.59
31183;BME280;17813;0.000;0.000;2024-02-16T06:25:39;99276.63;;;9.31;88.41
31183;BME280;17813;0.000;0.000;2024-02-16T06:28:06;99280.97;;;9.32;88.45
31183;BME280;17813;0.000;0.000;2024-02-16T06:30:32;99293.25;;;9.33;88.44
31183;BME280;17813;0.000;0.000;2024-02-16T06:32:59;99288.91;;;9.32;88.52
31183;BME280;17813;0.000;0.000;2024-02-16T06:35:29;99296.66;;;9.35;88.87
31183;BME280;17813;0.000;0.000;2024-02-16T06:37:55;99299.69;;;9.43;88.74
31183;BME280;17813;0.000;0.000;2024-02-16T06:40:24;99309.94;;;9.49;88.22
31183;BME280;17813;0.000;0.000;2024-02-16T06:42:54;99302.47;;;9.56;88.27
31183;BME280;17813;0.000;0.000;2024-02-16T06:45:22;99303.91;;;9.61;88.00
31183;BME280;17813;0.000;0.000;2024-02-16T06:47:52;99306.25;;;9.66;87.69
31183;BME280;17813;0.000;0.000;2024-02-16T06:50:18;99296.44;;;9.68;87.43
31183;BME280;17813;0.000;0.000;2024-02-16T06:52:46;99303.25;;;9.72;87.31
31183;BME280;17813;0.000;0.000;2024-02-16T06:55:13;99302.88;;;9.78;87.00
31183;BME280;17813;0.000;0.000;2024-02-16T06:57:40;99309.69;;;9.82;86.82
31183;BME280;17813;0.000;0.000;2024-02-16T07:00:09;99300.31;;;9.91;86.51
31183;BME280;17813;0.000;0.000;2024-02-16T07:02:36;99297.09;;;10.00;86.09
31183;BME280;17813;0.000;0.000;2024-02-16T07:05:03;99296.34;;;9.98;85.34
31183;BME280;17813;0.000;0.000;2024-02-16T07:07:32;99305.13;;;10.13;84.70
31183;BME280;17813;0.000;0.000;2024-02-16T07:10:03;99305.16;;;10.27;84.14
31183;BME280;17813;0.000;0.000;2024-02-16T07:12:31;99306.84;;;10.42;83.48
31183;BME280;17813;0.000;0.000;2024-02-16T07:15:00;99296.63;;;10.50;82.64
31183;BME280;17813;0.000;0.000;2024-02-16T07:17:32;99300.38;;;10.60;82.09
31183;BME280;17813;0.000;0.000;2024-02-16T07:20:02;99301.97;;;10.63;82.11
31183;BME280;17813;0.000;0.000;2024-02-16T07:22:32;99303.56;;;10.66;81.77
31183;BME280;17813;0.000;0.000;2024-02-16T07:25:01;99297.56;;;10.76;81.02
31183;BME280;17813;0.000;0.000;2024-02-16T07:27:31;99297.94;;;10.84;81.11
31183;BME280;17813;0.000;0.000;2024-02-16T07:29:59;99291.16;;;10.93;80.72
31183;BME280;17813;0.000;0.000;2024-02-16T07:32:26;99286.50;;;10.97;80.18
31183;BME280;17813;0.000;0.000;2024-02-16T07:34:54;99282.19;;;11.08;80.00
31183;BME280;17813;0.000;0.000;2024-02-16T07:37:22;99285.28;;;11.15;79.87
31183;BME280;17813;0.000;0.000;2024-02-16T07:39:50;99276.38;;;11.16;80.12
31183;BME280;17813;0.000;0.000;2024-02-16T07:42:18;99268.84;;;11.22;79.75
31183;BME280;17813;0.000;0.000;2024-02-16T07:44:46;99268.19;;;11.19;80.56
31183;BME280;17813;0.000;0.000;2024-02-16T07:47:14;99275.50;;;11.15;81.02
31183;BME280;17813;0.000;0.000;2024-02-16T07:49:42;99267.34;;;11.18;80.99
31183;BME280;17813;0.000;0.000;2024-02-16T07:52:10;99261.41;;;11.15;80.73
31183;BME280;17813;0.000;0.000;2024-02-16T07:54:37;99260.22;;;11.19;80.90
31183;BME280;17813;0.000;0.000;2024-02-16T07:57:05;99260.56;;;11.27;80.61
31183;BME280;17813;0.000;0.000;2024-02-16T07:59:32;99255.78;;;11.32;81.20
31183;BME280;17813;0.000;0.000;2024-02-16T08:02:01;99262.69;;;11.47;81.15
31183;BME280;17813;0.000;0.000;2024-02-16T08:04:30;99259.53;;;11.93;80.25
31183;BME280;17813;0.000;0.000;2024-02-16T08:06:57;99256.13;;;12.64;77.31
31183;BME280;17813;0.000;0.000;2024-02-16T08:09:25;99255.97;;;12.78;74.37
31183;BME280;17813;0.000;0.000;2024-02-16T08:11:56;99256.31;;;12.74;72.94
31183;BME280;17813;0.000;0.000;2024-02-16T08:14:24;99257.31;;;12.60;73.18
31183;BME280;17813;0.000;0.000;2024-02-16T08:16:51;99263.94;;;12.54;72.95
31183;BME280;17813;0.000;0.000;2024-02-16T08:19:18;99266.44;;;12.69;74.10
31183;BME280;17813;0.000;0.000;2024-02-16T08:21:45;99270.84;;;13.86;71.03
31183;BME280;17813;0.000;0.000;2024-02-16T08:24:13;99264.63;;;14.30;67.83
31183;BME280;17813;0.000;0.000;2024-02-16T08:26:41;99263.56;;;13.99;68.04
31183;BME280;17813;0.000;0.000;2024-02-16T08:29:08;99259.53;;;13.60;68.10
31183;BME280;17813;0.000;0.000;2024-02-16T08:31:36;99259.66;;;13.12;70.32
31183;BME280;17813;0.000;0.000;2024-02-16T08:34:04;99261.34;;;12.89;70.95
31183;BME280;17813;0.000;0.000;2024-02-16T08:36:34;99270.41;;;12.87;71.51
31183;BME280;17813;0.000;0.000;2024-02-16T08:39:01;99267.16;;;12.95;72.52
31183;BME280;17813;0.000;0.000;2024-02-16T08:41:29;99262.47;;;12.98;71.43
31183;BME280;17813;0.000;0.000;2024-02-16T08:43:57;99253.94;;;13.06;70.46
31183;BME280;17813;0.000;0.000;2024-02-16T08:46:24;99262.03;;;13.04;71.18
31183;BME280;17813;0.000;0.000;2024-02-16T08:48:50;99260.97;;;13.07;70.92
31183;BME280;17813;0.000;0.000;2024-02-16T08:51:20;99261.19;;;13.04;70.94
31183;BME280;17813;0.000;0.000;2024-02-16T08:53:48;99255.63;;;13.07;70.41
31183;BME280;17813;0.000;0.000;2024-02-16T08:56:14;99262.84;;;13.17;70.08
31183;BME280;17813;0.000;0.000;2024-02-16T08:58:42;99263.97;;;13.37;67.70
31183;BME280;17813;0.000;0.000;2024-02-16T09:01:09;99265.59;;;13.51;66.70
31183;BME280;17813;0.000;0.000;2024-02-16T09:03:35;99262.47;;;14.02;65.45
31183;BME280;17813;0.000;0.000;2024-02-16T09:06:05;99264.56;;;14.75;63.05
31183;BME280;17813;0.000;0.000;2024-02-16T09:08:32;99254.47;;;15.63;59.47
31183;BME280;17813;0.000;0.000;2024-02-16T09:11:05;99256.31;;;16.83;56.73
31183;BME280;17813;0.000;0.000;2024-02-16T09:13:45;99243.75;;;17.42;53.26
31183;BME280;17813;0.000;0.000;2024-02-16T09:16:12;99255.69;;;16.51;54.82
31183;BME280;17813;0.000;0.000;2024-02-16T09:18:41;99258.81;;;15.43;58.68
31183;BME280;17813;0.000;0.000;2024-02-16T09:21:10;99268.22;;;15.06;60.19
31183;BME280;17813;0.000;0.000;2024-02-16T09:23:39;99264.91;;;15.66;59.87
31183;BME280;17813;0.000;0.000;2024-02-16T09:26:08;99252.44;;;16.07;57.35
31183;BME280;17813;0.000;0.000;2024-02-16T09:28:42;99260.69;;;15.94;57.07
31183;BME280;17813;0.000;0.000;2024-02-16T09:31:13;99264.78;;;16.29;55.94
31183;BME280;17813;0.000;0.000;2024-02-16T09:33:43;99249.97;;;17.32;53.03
31183;BME280;17813;0.000;0.000;2024-02-16T09:36:11;99256.19;;;17.14;51.90
31183;BME280;17813;0.000;0.000;2024-02-16T09:38:38;99258.38;;;16.60;53.35
31183;BME280;17813;0.000;0.000;2024-02-16T09:41:06;99257.31;;;15.92;54.59
31183;BME280;17813;0.000;0.000;2024-02-16T09:43:34;99249.50;;;15.80;55.98
31183;BME280;17813;0.000;0.000;2024-02-16T09:46:01;99254.81;;;15.70;56.27
31183;BME280;17813;0.000;0.000;2024-02-16T09:48:29;99253.50;;;15.53;56.76
31183;BME280;17813;0.000;0.000;2024-02-16T09:50:57;99255.88;;;15.47;57.15
31183;BME280;17813;0.000;0.000;2024-02-16T09:53:29;99262.38;;;15.33;57.93
31183;BME280;17813;0.000;0.000;2024-02-16T09:55:57;99247.25;;;15.22;58.18
31183;BME280;17813;0.000;0.000;2024-02-16T09:58:24;99248.16;;;15.11;58.50
31183;BME280;17813;0.000;0.000;2024-02-16T10:00:55;99256.22;;;15.00;57.04
31183;BME280;17813;0.000;0.000;2024-02-16T10:03:32;99254.41;;;15.01;57.75
31183;BME280;17813;0.000;0.000;2024-02-16T10:06:11;99259.78;;;14.90;57.43
31183;BME280;17813;0.000;0.000;2024-02-16T10:08:56;99259.03;;;14.67;57.76
31183;BME280;17813;0.000;0.000;2024-02-16T10:11:27;99262.72;;;14.87;58.06
31183;BME280;17813;0.000;0.000;2024-02-16T10:14:02;99273.66;;;14.84;58.43
31183;BME280;17813;0.000;0.000;2024-02-16T10:16:30;99256.63;;;15.17;57.54
31183;BME280;17813;0.000;0.000;2024-02-16T10:19:08;99246.88;;;15.48;55.91
31183;BME280;17813;0.000;0.000;2024-02-16T10:21:40;99244.72;;;15.41;56.64
31183;BME280;17813;0.000;0.000;2024-02-16T10:24:14;99256.72;;;15.26;57.36
31183;BME280;17813;0.000;0.000;2024-02-16T10:26:43;99264.72;;;15.26;57.44
31183;BME280;17813;0.000;0.000;2024-02-16T10:29:11;99259.44;;;15.15;57.70
31183;BME280;17813;0.000;0.000;2024-02-16T10:31:42;99266.47;;;15.16;58.64
31183;BME280;17813;0.000;0.000;2024-02-16T10:34:10;99266.41;;;15.27;57.66
31183;BME280;17813;0.000;0.000;2024-02-16T10:36:40;99258.16;;;15.30;57.48
31183;BME280;17813;0.000;0.000;2024-02-16T10:39:10;99252.75;;;15.41;57.35
31183;BME280;17813;0.000;0.000;2024-02-16T10:41:40;99252.59;;;15.43;57.26
31183;BME280;17813;0.000;0.000;2024-02-16T10:44:09;99247.25;;;15.43;57.49
31183;BME280;17813;0.000;0.000;2024-02-16T10:46:37;99248.16;;;15.53;57.15
31183;BME280;17813;0.000;0.000;2024-02-16T10:49:05;99238.56;;;15.62;56.15
31183;BME280;17813;0.000;0.000;2024-02-16T10:51:45;99241.38;;;15.60;55.54
31183;BME280;17813;0.000;0.000;2024-02-16T10:54:17;99243.53;;;15.55;55.58
31183;BME280;17813;0.000;0.000;2024-02-16T10:56:44;99257.16;;;15.63;56.75
31183;BME280;17813;0.000;0.000;2024-02-16T10:59:16;99249.97;;;15.64;55.94
31183;BME280;17813;0.000;0.000;2024-02-16T11:01:45;99244.81;;;15.72;55.41
31183;BME280;17813;0.000;0.000;2024-02-16T11:04:17;99250.09;;;15.83;55.55
31183;BME280;17813;0.000;0.000;2024-02-16T11:06:55;99241.59;;;16.08;55.50
31183;BME280;17813;0.000;0.000;2024-02-16T11:09:29;99245.09;;;16.39;54.47
31183;BME280;17813;0.000;0.000;2024-02-16T11:12:00;99241.47;;;16.60;53.54
31183;BME280;17813;0.000;0.000;2024-02-16T11:14:44;99243.22;;;16.90;51.98
31183;BME280;17813;0.000;0.000;2024-02-16T11:17:14;99241.06;;;17.42;52.10
31183;BME280;17813;0.000;0.000;2024-02-16T11:19:42;99240.47;;;17.67;51.45
31183;BME280;17813;0.000;0.000;2024-02-16T11:22:14;99244.41;;;17.73;49.44
31183;BME280;17813;0.000;0.000;2024-02-16T11:24:47;99250.66;;;18.00;50.26
31183;BME280;17813;0.000;0.000;2024-02-16T11:27:16;99242.47;;;18.02;50.60
31183;BME280;17813;0.000;0.000;2024-02-16T11:29:48;99240.19;;;18.07;50.61
31183;BME280;17813;0.000;0.000;2024-02-16T11:32:17;99248.41;;;18.06;51.01
31183;BME280;17813;0.000;0.000;2024-02-16T11:34:44;99251.38;;;18.03;51.79
31183;BME280;17813;0.000;0.000;2024-02-16T11:37:13;99250.97;;;17.97;51.57
31183;BME280;17813;0.000;0.000;2024-02-16T11:39:43;99252.66;;;17.98;51.67
31183;BME280;17813;0.000;0.000;2024-02-16T11:42:19;99257.63;;;17.93;51.24
31183;BME280;17813;0.000;0.000;2024-02-16T11:44:55;99253.44;;;17.81;50.93
31183;BME280;17813;0.000;0.000;2024-02-16T11:47:23;99255.53;;;17.87;51.52
31183;BME280;17813;0.000;0.000;2024-02-16T11:50:06;99253.69;;;17.88;51.09
31183;BME280;17813;0.000;0.000;2024-02-16T11:52:40;99254.09;;;17.93;51.54
31183;BME280;17813;0.000;0.000;2024-02-16T11:55:10;99254.09;;;17.93;51.71
31183;BME280;17813;0.000;0.000;2024-02-16T11:57:38;99261.06;;;17.76;51.28
31183;BME280;17813;0.000;0.000;2024-02-16T12:00:05;99257.78;;;17.82;51.78
31183;BME280;17813;0.000;0.000;2024-02-16T12:02:39;99250.31;;;17.86;51.76
31183;BME280;17813;0.000;0.000;2024-02-16T12:05:07;99255.13;;;17.82;51.62
31183;BME280;17813;0.000;0.000;2024-02-16T12:07:37;99258.53;;;17.75;50.98
31183;BME280;17813;0.000;0.000;2024-02-16T12:10:07;99256.56;;;17.67;52.06
31183;BME280;17813;0.000;0.000;2024-02-16T12:12:35;99258.25;;;17.58;51.74
31183;BME280;17813;0.000;0.000;2024-02-16T12:15:05;99244.19;;;17.37;51.57
31183;BME280;17813;0.000;0.000;2024-02-16T12:17:33;99248.00;;;17.25;52.61
31183;BME280;17813;0.000;0.000;2024-02-16T12:20:02;99245.59;;;17.22;53.23
31183;BME280;17813;0.000;0.000;2024-02-16T12:22:30;99244.19;;;17.27;53.27
31183;BME280;17813;0.000;0.000;2024-02-16T12:24:57;99250.41;;;17.28;53.78
31183;BME280;17813;0.000;0.000;2024-02-16T12:27:26;99245.19;;;17.17;53.86
31183;BME280;17813;0.000;0.000;2024-02-16T12:29:54;99256.34;;;17.12;54.10
31183;BME280;17813;0.000;0.000;2024-02-16T12:32:22;99252.25;;;16.98;53.67
31183;BME280;17813;0.000;0.000;2024-02-16T12:34:51;99245.91;;;17.09;54.04
31183;BME280;17813;0.000;0.000;2024-02-16T12:37:23;99247.72;;;17.18;54.15
31183;BME280;17813;0.000;0.000;2024-02-16T12:39:51;99247.28;;;17.23;53.72
31183;BME280;17813;0.000;0.000;2024-02-16T12:42:20;99250.41;;;17.18;52.52
31183;BME280;17813;0.000;0.000;2024-02-16T12:44:49;99244.34;;;17.26;52.00
31183;BME280;17813;0.000;0.000;2024-02-16T12:47:17;99239.53;;;17.29;51.10
31183;BME280;17813;0.000;0.000;2024-02-16T12:49:46;99236.97;;;17.38;50.71
31183;BME280;17813;0.000;0.000;2024-02-16T12:52:20;99239.50;;;17.49;50.46
31183;BME280;17813;0.000;0.000;2024-02-16T12:54:52;99241.19;;;17.59;50.36
31183;BME280;17813;0.000;0.000;2024-02-16T12:57:20;99243.56;;;17.62;49.46
31183;BME280;17813;0.000;0.000;2024-02-16T12:59:47;99247.22;;;17.81;49.59
31183;BME280;17813;0.000;0.000;2024-02-16T13:02:18;99251.78;;;18.08;50.29
31183;BME280;17813;0.000;0.000;2024-02-16T13:04:45;99255.16;;;18.10;49.04
31183;BME280;17813;0.000;0.000;2024-02-16T13:07:13;99251.78;;;18.08;49.39
31183;BME280;17813;0.000;0.000;2024-02-16T13:09:40;99245.09;;;17.84;49.71
31183;BME280;17813;0.000;0.000;2024-02-16T13:12:13;99246.81;;;17.76;49.32
31183;BME280;17813;0.000;0.000;2024-02-16T13:14:40;99244.28;;;17.74;49.60
31183;BME280;17813;0.000;0.000;2024-02-16T13:17:07;99244.69;;;17.79;49.46
31183;BME280;17813;0.000;0.000;2024-02-16T13:19:34;99250.75;;;17.62;49.02
31183;BME280;17813;0.000;0.000;2024-02-16T13:22:01;99248.22;;;17.60;49.67
31183;BME280;17813;0.000;0.000;2024-02-16T13:24:28;99260.53;;;17.53;49.87